createdAt,value
2022-10-18T00:00:57.839Z,76.35
2022-10-18T00:03:30.783Z,74.98
2022-10-18T00:06:21.356Z,74.77
2022-10-18T00:09:26.802Z,74.06
2022-10-18T00:11:57.690Z,74.37
2022-10-18T00:14:31.303Z,72.22
2022-10-18T00:17:04.490Z,71.15
2022-10-18T00:19:38.838Z,69.86
2022-10-18T00:22:16.013Z,69.67
2022-10-18T00:25:09.673Z,67.86
2022-10-18T00:27:50.204Z,66.33
2022-10-18T00:30:21.603Z,67.08
2022-10-18T00:32:57.625Z,66.28
2022-10-18T00:35:39.974Z,65.48
2022-10-18T00:38:32.214Z,64.33
2022-10-18T00:48:20.085Z,61.98
2022-10-18T00:51:13.848Z,61.04
2022-10-18T00:56:43.437Z,60.10
2022-10-18T00:59:36.658Z,57.19
2022-10-18T01:02:59.342Z,56.43
2022-10-18T01:05:53.910Z,52.05
2022-10-18T01:08:54.335Z,56.24
2022-10-18T01:15:09.043Z,55.90
2022-10-18T01:17:56.480Z,56.27
2022-10-18T01:21:07.535Z,55.74
2022-10-18T01:24:16.553Z,55.66
2022-10-18T01:27:07.927Z,54.61
2022-10-18T01:33:10.617Z,54.20
2022-10-18T01:36:04.052Z,54.35
2022-10-18T01:38:41.928Z,54.78
2022-10-18T01:41:26.668Z,56.14
2022-10-18T01:44:11.828Z,56.43
2022-10-18T01:47:10.311Z,51.83
2022-10-18T01:50:06.705Z,52.46
2022-10-18T01:52:42.752Z,55.11
2022-10-18T01:55:24.418Z,55.32
2022-10-18T01:58:09.517Z,56.85
2022-10-18T02:01:02.505Z,55.21
2022-10-18T02:03:46.977Z,52.85
2022-10-18T02:06:51.889Z,54.38
2022-10-18T02:09:55.440Z,55.76
2022-10-18T02:12:41.388Z,56.14
2022-10-18T02:15:20.706Z,57.62
2022-10-18T02:17:56.219Z,57.38
2022-10-18T02:20:42.671Z,58.23
2022-10-18T02:26:35.436Z,56.34
2022-10-18T02:29:19.992Z,58.28
2022-10-18T02:32:08.546Z,53.23
2022-10-18T02:34:50.752Z,58.70
2022-10-18T02:37:24.403Z,66.67
2022-10-18T02:40:14.009Z,71.00
2022-10-18T02:43:02.943Z,74.15
2022-10-18T02:45:39.154Z,75.87
2022-10-18T02:48:27.640Z,77.15
2022-10-18T02:51:06.052Z,75.70
2022-10-18T02:53:40.822Z,76.03
2022-10-18T02:56:32.062Z,75.12
2022-10-18T02:59:25.493Z,75.08
2022-10-18T03:02:00.514Z,75.58
2022-10-18T03:04:38.252Z,76.68
2022-10-18T03:07:17.423Z,76.36
2022-10-18T03:09:59.118Z,76.75
2022-10-18T03:12:45.208Z,77.45
2022-10-18T03:15:19.867Z,77.36
2022-10-18T03:18:00.094Z,77.62
2022-10-18T03:20:40.808Z,77.42
2022-10-18T03:23:26.170Z,77.48
2022-10-18T03:26:07.447Z,77.47
2022-10-18T03:28:55.423Z,77.40
2022-10-18T03:31:28.222Z,77.56
2022-10-18T03:34:03.943Z,77.56
2022-10-18T03:36:45.388Z,77.62
2022-10-18T03:39:21.655Z,77.42
2022-10-18T03:41:57.943Z,76.52
2022-10-18T03:44:36.568Z,76.22
2022-10-18T03:47:21.820Z,74.91
2022-10-18T03:49:57.447Z,73.90
2022-10-18T03:52:33.632Z,73.14
2022-10-18T03:55:14.622Z,71.37
2022-10-18T03:57:50.278Z,71.00
2022-10-18T04:00:30.421Z,70.70
2022-10-18T04:03:04.874Z,70.89
2022-10-18T04:05:44.019Z,70.12
2022-10-18T04:08:20.299Z,69.42
2022-10-18T04:10:53.698Z,68.94
2022-10-18T04:13:33.571Z,70.52
2022-10-18T04:19:21.985Z,70.77
2022-10-18T04:22:23.481Z,70.73
2022-10-18T04:25:11.253Z,71.50
2022-10-18T04:28:08.058Z,71.45
2022-10-18T04:30:40.890Z,71.25
2022-10-18T04:33:28.055Z,71.84
2022-10-18T04:36:14.952Z,71.82
2022-10-18T04:38:51.472Z,70.47
2022-10-18T04:41:34.511Z,71.02
2022-10-18T04:44:12.806Z,71.34
2022-10-18T04:47:04.262Z,72.53
2022-10-18T04:49:43.577Z,71.80
2022-10-18T04:52:17.537Z,72.16
2022-10-18T04:55:09.571Z,72.41
2022-10-18T04:57:46.840Z,72.47
2022-10-18T05:00:39.997Z,73.11
2022-10-18T05:03:28.086Z,73.96
2022-10-18T05:06:13.452Z,74.57
2022-10-18T05:08:47.904Z,75.09
2022-10-18T05:11:32.174Z,76.22
2022-10-18T05:14:23.769Z,77.57
2022-10-18T05:17:22.887Z,77.89
2022-10-18T05:23:02.009Z,78.36
2022-10-18T05:25:43.985Z,79.27
2022-10-18T05:28:43.878Z,79.93
2022-10-18T05:31:20.131Z,79.71
2022-10-18T05:34:06.799Z,79.86
2022-10-18T05:36:55.530Z,80.41
2022-10-18T05:39:45.048Z,80.39
2022-10-18T05:42:26.540Z,80.18
2022-10-18T05:45:02.032Z,80.01
2022-10-18T05:47:52.301Z,80.20
2022-10-18T05:50:29.519Z,80.86
2022-10-18T05:56:10.280Z,81.40
2022-10-18T05:58:47.787Z,82.26
2022-10-18T06:01:26.813Z,82.60
2022-10-18T06:04:09.092Z,82.69
2022-10-18T06:06:52.150Z,82.57
2022-10-18T06:09:38.511Z,82.73
2022-10-18T06:12:24.725Z,82.87
2022-10-18T06:15:02.823Z,83.15
2022-10-18T06:20:36.148Z,82.91
2022-10-18T06:23:15.717Z,82.84
2022-10-18T06:25:52.455Z,83.68
2022-10-18T06:28:36.507Z,84.20
2022-10-18T06:31:15.489Z,84.01
2022-10-18T06:33:54.233Z,84.62
2022-10-18T06:36:42.719Z,85.07
2022-10-18T06:39:29.713Z,84.72
2022-10-18T06:42:12.867Z,85.25
2022-10-18T06:45:21.162Z,85.81
2022-10-18T06:48:08.749Z,86.14
2022-10-18T06:50:49.390Z,85.94
2022-10-18T06:53:33.178Z,86.36
2022-10-18T06:56:17.517Z,86.45
2022-10-18T06:59:16.393Z,86.96
2022-10-18T07:02:19.038Z,87.30
2022-10-18T07:08:09.620Z,88.00
2022-10-18T07:10:47.943Z,87.75
2022-10-18T07:13:32.907Z,88.45
2022-10-18T07:16:22.819Z,88.31
2022-10-18T07:19:06.910Z,88.30
2022-10-18T07:21:50.947Z,88.70
2022-10-18T07:30:20.323Z,89.27
2022-10-18T07:33:14.183Z,89.63
2022-10-18T07:36:03.802Z,89.60
2022-10-18T07:39:05.589Z,90.07
2022-10-18T07:41:50.469Z,90.39
2022-10-18T07:44:30.517Z,90.16
2022-10-18T07:47:07.664Z,90.91
2022-10-18T07:49:51.094Z,89.94
2022-10-18T07:52:50.030Z,89.63
2022-10-18T07:55:35.089Z,89.57
2022-10-18T07:58:12.020Z,89.30
2022-10-18T08:01:09.301Z,89.15
2022-10-18T08:03:47.018Z,89.17
2022-10-18T08:06:26.646Z,89.03
2022-10-18T08:09:26.167Z,89.42
2022-10-18T08:12:16.893Z,89.50
2022-10-18T08:14:59.903Z,88.71
2022-10-18T08:17:42.885Z,89.09
2022-10-18T08:20:42.811Z,89.39
2022-10-18T08:23:27.162Z,89.25
2022-10-18T08:26:06.074Z,88.89
2022-10-18T08:28:53.942Z,88.89
2022-10-18T08:31:46.364Z,88.11
2022-10-18T08:34:33.089Z,88.10
2022-10-18T08:37:22.272Z,88.24
2022-10-18T08:40:13.327Z,87.48
2022-10-18T08:43:09.403Z,86.67
2022-10-18T08:45:51.496Z,86.55
2022-10-18T08:48:35.753Z,87.01
2022-10-18T08:51:44.167Z,86.77
2022-10-18T08:55:11.156Z,87.27
2022-10-18T08:57:58.594Z,87.39
2022-10-18T09:00:43.842Z,87.96
2022-10-18T09:03:39.948Z,87.99
2022-10-18T09:06:46.189Z,88.23
2022-10-18T09:09:31.535Z,87.95
2022-10-18T09:12:33.750Z,88.05
2022-10-18T09:15:34.932Z,88.42
2022-10-18T09:21:50.046Z,88.18
2022-10-18T09:24:40.096Z,88.08
2022-10-18T09:27:32.382Z,87.92
2022-10-18T09:33:44.946Z,87.80
2022-10-18T09:36:44.593Z,88.20
2022-10-18T09:40:00.991Z,87.60
2022-10-18T09:45:56.219Z,87.28
2022-10-18T09:48:51.125Z,87.57
2022-10-18T09:51:39.522Z,87.42
2022-10-18T09:54:34.267Z,87.29
2022-10-18T09:57:28.493Z,86.95
2022-10-18T10:03:24.800Z,87.53
2022-10-18T10:06:21.500Z,87.04
2022-10-18T10:09:14.968Z,87.43
2022-10-18T10:12:09.689Z,87.63
2022-10-18T10:15:05.157Z,87.64
2022-10-18T10:17:43.980Z,87.74
2022-10-18T10:20:32.694Z,88.47
2022-10-18T10:23:23.356Z,88.33
2022-10-18T10:26:11.283Z,87.62
2022-10-18T10:28:54.282Z,87.92
2022-10-18T10:31:54.715Z,87.84
2022-10-18T10:34:42.324Z,87.56
2022-10-18T10:37:48.745Z,87.71
2022-10-18T10:40:36.812Z,88.07
2022-10-18T10:43:40.313Z,87.31
2022-10-18T10:52:26.749Z,86.86
2022-10-18T10:55:33.797Z,87.18
2022-10-18T10:58:25.645Z,87.51
2022-10-18T11:01:16.747Z,87.82
2022-10-18T11:04:01.201Z,88.67
2022-10-18T11:07:03.767Z,89.70
2022-10-18T11:10:01.985Z,90.60
2022-10-18T11:16:15.523Z,92.17
2022-10-18T11:18:59.147Z,92.35
2022-10-18T11:21:43.545Z,92.34
2022-10-18T11:24:31.827Z,93.23
2022-10-18T11:27:28.213Z,93.39
2022-10-18T11:30:22.973Z,96.17
2022-10-18T11:33:07.755Z,96.02
2022-10-18T11:36:04.817Z,96.33
2022-10-18T11:38:57.340Z,95.78
2022-10-18T11:42:01.863Z,95.79
2022-10-18T11:44:50.828Z,95.30
2022-10-18T11:47:53.688Z,95.15
2022-10-18T11:50:40.515Z,95.32
2022-10-18T11:53:27.416Z,95.07
2022-10-18T11:56:19.820Z,94.64
2022-10-18T11:59:21.830Z,94.50
2022-10-18T12:02:08.276Z,94.36
2022-10-18T12:05:18.855Z,93.83
2022-10-18T12:08:06.557Z,93.94
2022-10-18T12:11:05.796Z,93.69
2022-10-18T12:14:03.744Z,93.56
2022-10-18T12:16:53.638Z,93.23
2022-10-18T12:19:53.202Z,93.13
2022-10-18T12:22:40.337Z,92.76
2022-10-18T12:25:42.443Z,92.76
2022-10-18T12:28:56.883Z,92.72
2022-10-18T12:31:42.501Z,93.21
2022-10-18T12:34:50.988Z,92.79
2022-10-18T12:38:04.896Z,92.87
2022-10-18T12:40:56.972Z,92.52
2022-10-18T12:43:44.068Z,92.80
2022-10-18T12:46:22.424Z,93.50
2022-10-18T12:49:16.749Z,93.46
2022-10-18T12:52:13.590Z,93.25
2022-10-18T12:55:22.266Z,93.88
2022-10-18T12:58:41.508Z,94.64
2022-10-18T13:01:20.708Z,94.35
2022-10-18T13:04:00.759Z,94.69
2022-10-18T13:07:18.599Z,95.14
2022-10-18T13:10:25.136Z,95.12
2022-10-18T13:17:01.593Z,95.05
2022-10-18T13:20:25.085Z,95.28
2022-10-18T13:23:37.878Z,95.24
2022-10-18T13:26:34.811Z,95.39
2022-10-18T13:32:32.892Z,95.37
2022-10-18T13:39:03.942Z,94.97
2022-10-18T13:42:36.277Z,95.28
2022-10-18T13:45:58.601Z,95.40
2022-10-18T13:49:05.104Z,95.62
2022-10-18T13:52:05.997Z,95.76
2022-10-18T13:55:13.183Z,95.93
2022-10-18T13:58:23.882Z,95.76
2022-10-18T14:01:20.711Z,95.81
2022-10-18T14:04:46.640Z,95.42
2022-10-18T14:07:30.109Z,95.12
2022-10-18T14:10:08.764Z,95.18
2022-10-18T14:12:51.744Z,94.45
2022-10-18T14:15:44.113Z,94.45
2022-10-18T14:18:35.986Z,94.37
2022-10-18T14:24:31.483Z,94.21
2022-10-18T14:27:28.217Z,93.95
2022-10-18T14:30:30.464Z,94.20
2022-10-18T14:33:39.747Z,93.76
2022-10-18T14:36:34.038Z,93.37
2022-10-18T14:39:13.826Z,93.15
2022-10-18T14:42:09.229Z,92.35
2022-10-18T14:44:56.653Z,92.18
2022-10-18T14:47:42.475Z,93.03
2022-10-18T14:50:33.472Z,93.52
2022-10-18T14:53:35.189Z,93.08
2022-10-18T14:59:13.538Z,92.42
2022-10-18T15:02:09.629Z,91.67
2022-10-18T15:04:59.564Z,91.46
2022-10-18T15:10:37.653Z,90.60
2022-10-18T15:13:30.631Z,90.36
2022-10-18T15:16:08.860Z,90.02
2022-10-18T15:18:48.152Z,90.17
2022-10-18T15:25:32.240Z,89.16
2022-10-18T15:28:12.719Z,88.96
2022-10-18T15:30:54.184Z,88.47
2022-10-18T15:33:42.717Z,88.53
2022-10-18T15:36:39.748Z,87.57
2022-10-18T15:39:40.130Z,86.91
2022-10-18T15:42:56.510Z,86.79
2022-10-18T15:48:53.750Z,86.68
2022-10-18T15:51:54.682Z,86.99
2022-10-18T15:54:40.889Z,86.96
2022-10-18T15:57:18.429Z,87.38
2022-10-18T16:00:08.910Z,87.40
2022-10-18T16:03:08.605Z,87.95
2022-10-18T16:05:46.661Z,88.09
2022-10-18T16:08:41.415Z,88.01
2022-10-18T16:11:35.385Z,88.27
2022-10-18T16:14:14.767Z,88.13
2022-10-18T16:16:53.574Z,87.71
2022-10-18T16:19:50.469Z,87.52
2022-10-18T16:22:31.113Z,87.33
2022-10-18T16:25:11.712Z,86.81
2022-10-18T16:27:50.086Z,86.62
2022-10-18T16:30:44.344Z,86.78
2022-10-18T16:33:31.049Z,87.22
2022-10-18T16:36:09.528Z,87.76
2022-10-18T16:38:48.123Z,87.99
2022-10-18T16:41:24.982Z,88.96
2022-10-18T16:44:04.059Z,89.07
2022-10-18T16:46:42.363Z,88.92
2022-10-18T16:49:28.273Z,89.26
2022-10-18T16:52:20.826Z,89.88
2022-10-18T16:55:01.055Z,90.20
2022-10-18T17:00:49.768Z,90.48
2022-10-18T17:03:30.174Z,90.18
2022-10-18T17:06:30.879Z,89.66
2022-10-18T17:09:18.314Z,89.49
2022-10-18T17:11:55.152Z,89.65
2022-10-18T17:14:48.765Z,90.43
2022-10-18T17:18:01.372Z,90.71
2022-10-18T17:20:51.801Z,90.89
2022-10-18T17:23:31.677Z,91.09
2022-10-18T17:26:30.869Z,90.55
2022-10-18T17:29:49.918Z,90.40
2022-10-18T17:32:29.679Z,90.56
2022-10-18T17:35:07.182Z,90.26
2022-10-18T17:37:45.421Z,90.09
2022-10-18T17:40:26.227Z,89.85
2022-10-18T17:43:24.618Z,89.58
2022-10-18T17:46:02.654Z,89.65
2022-10-18T17:48:39.264Z,89.73
2022-10-18T17:51:18.296Z,89.39
2022-10-18T17:54:05.889Z,89.27
2022-10-18T17:56:43.788Z,89.29
2022-10-18T17:59:21.588Z,89.65
2022-10-18T18:02:10.928Z,90.06
2022-10-18T18:04:53.871Z,89.89
2022-10-18T18:07:39.218Z,89.70
2022-10-18T18:10:25.446Z,89.55
2022-10-18T18:13:17.650Z,89.21
2022-10-18T18:16:09.915Z,89.02
2022-10-18T18:21:53.204Z,88.76
2022-10-18T18:24:34.119Z,88.67
2022-10-18T18:27:12.565Z,88.80
2022-10-18T18:29:51.271Z,88.42
2022-10-18T18:32:40.261Z,88.40
2022-10-18T18:35:22.564Z,89.19
2022-10-18T18:38:14.097Z,88.83
2022-10-18T18:43:59.948Z,89.48
2022-10-18T18:46:51.309Z,89.71
2022-10-18T18:49:33.511Z,89.75
2022-10-18T18:52:14.671Z,90.06
2022-10-18T18:54:57.701Z,90.10
2022-10-18T18:57:35.231Z,90.06
2022-10-18T19:00:14.392Z,90.29
2022-10-18T19:03:00.552Z,90.78
2022-10-18T19:05:49.262Z,91.00
2022-10-18T19:08:24.251Z,90.98
2022-10-18T19:11:17.227Z,91.15
2022-10-18T19:14:04.926Z,91.27
2022-10-18T19:16:46.892Z,91.20
2022-10-18T19:19:29.556Z,91.60
2022-10-18T19:22:24.090Z,91.43
2022-10-18T19:25:02.169Z,91.58
2022-10-18T19:28:13.154Z,91.76
2022-10-18T19:31:00.952Z,91.41
2022-10-18T19:33:48.403Z,91.67
2022-10-18T19:36:34.246Z,91.44
2022-10-18T19:39:20.717Z,91.35
2022-10-18T19:42:09.418Z,91.00
2022-10-18T19:45:02.127Z,90.89
2022-10-18T19:47:37.988Z,90.31
2022-10-18T19:50:16.564Z,90.35
2022-10-18T19:53:03.045Z,90.47
2022-10-18T19:56:07.100Z,90.68
2022-10-18T19:59:10.418Z,90.96
2022-10-18T20:01:48.275Z,91.21
2022-10-18T20:04:25.564Z,91.58
2022-10-18T20:07:09.924Z,91.85
2022-10-18T20:09:59.204Z,91.97
2022-10-18T20:12:47.347Z,91.80
2022-10-18T20:15:33.528Z,92.05
2022-10-18T20:18:32.969Z,92.62
2022-10-18T20:21:13.069Z,92.72
2022-10-18T20:23:50.388Z,92.80
2022-10-18T20:26:28.295Z,93.27
2022-10-18T20:32:28.641Z,93.67
2022-10-18T20:35:12.542Z,93.71
2022-10-18T20:38:05.205Z,93.84
2022-10-18T20:40:45.453Z,93.57
2022-10-18T20:43:30.749Z,93.48
2022-10-18T20:46:19.304Z,93.06
2022-10-18T20:48:56.358Z,92.56
2022-10-18T20:51:58.043Z,92.56
2022-10-18T20:54:44.770Z,92.15
2022-10-18T20:57:37.776Z,92.63
2022-10-18T21:00:36.228Z,92.26
2022-10-18T21:08:41.115Z,91.39
2022-10-18T21:11:24.377Z,91.77
2022-10-18T21:14:13.367Z,91.61
2022-10-18T21:16:56.312Z,92.14
2022-10-18T21:22:29.581Z,91.80
2022-10-18T21:25:07.660Z,91.92
2022-10-18T21:27:53.980Z,91.51
2022-10-18T21:30:47.861Z,91.54
2022-10-18T21:33:36.443Z,91.39
2022-10-18T21:36:42.260Z,90.99
2022-10-18T21:39:33.627Z,90.67
2022-10-18T21:42:10.946Z,90.35
2022-10-18T21:44:57.587Z,90.38
2022-10-18T21:47:36.807Z,90.27
2022-10-18T21:50:16.633Z,89.98
2022-10-18T21:55:53.072Z,89.17
2022-10-18T22:01:32.298Z,89.70
2022-10-18T22:04:17.542Z,90.33
2022-10-18T22:06:52.778Z,91.07
2022-10-18T22:09:38.378Z,90.80
2022-10-18T22:12:29.378Z,90.96
2022-10-18T22:15:11.324Z,90.61
2022-10-18T22:17:50.089Z,90.78
2022-10-18T22:20:30.367Z,90.97
2022-10-18T22:23:22.453Z,91.39
2022-10-18T22:26:08.681Z,91.24
2022-10-18T22:29:20.538Z,91.01
2022-10-18T22:32:12.191Z,90.67
2022-10-18T22:34:51.846Z,89.61
2022-10-18T22:41:07.044Z,88.13
2022-10-18T22:44:03.393Z,87.96
2022-10-18T22:46:48.373Z,87.26
2022-10-18T22:52:37.265Z,86.54
2022-10-18T22:55:36.738Z,86.53
2022-10-18T22:58:20.230Z,86.66
2022-10-18T23:01:09.032Z,85.39
2022-10-18T23:04:00.585Z,85.25
2022-10-18T23:06:37.777Z,84.35
2022-10-18T23:09:30.061Z,83.44
2022-10-18T23:12:11.476Z,83.40
2022-10-18T23:14:48.999Z,83.96
2022-10-18T23:17:42.879Z,83.58
2022-10-18T23:20:20.206Z,83.79
2022-10-18T23:22:59.711Z,83.74
2022-10-18T23:25:52.932Z,83.29
2022-10-18T23:28:32.793Z,82.84
2022-10-18T23:31:13.163Z,82.61
2022-10-18T23:34:03.450Z,82.61
2022-10-18T23:36:45.728Z,82.41
2022-10-18T23:39:34.722Z,82.09
2022-10-18T23:42:16.977Z,81.21
2022-10-18T23:45:02.802Z,81.46
2022-10-18T23:47:41.464Z,78.88
2022-10-18T23:50:27.271Z,77.74
2022-10-18T23:53:05.091Z,75.76
2022-10-18T23:55:43.508Z,75.22
2022-10-18T23:58:31.987Z,74.29
